| time (UTC) | temp F | wind direction | speed knots | gust knots | rain 1hr in | rain 24hr in | rain mn in | humidity % | barometer mb |
| 20260509113046 | 49 | 179 | 0.0 | 1.7 | 0.02 | 0.07 | 0.05 | 86 | 1014.4 |
| 20260509112528 | 50 | 179 | 0.9 | 1.7 | 0.03 | 0.07 | 0.05 | 86 | 1014.3 |
| 20260509112027 | 50 | 179 | 0.9 | 1.7 | 0.03 | 0.07 | 0.05 | 85 | 1014.3 |
| 20260509111539 | 50 | 179 | 0.9 | 2.6 | 0.04 | 0.07 | 0.05 | 84 | 1014.4 |
| 20260509111026 | 50 | 0 | 0.9 | 2.6 | 0.05 | 0.07 | 0.05 | 84 | 1014.5 |
| 20260509110528 | 50 | 186 | 0.9 | 3.5 | 0.05 | 0.07 | 0.05 | 84 | 1014.3 |
| 20260509110042 | 50 | 91 | 0.0 | 3.5 | 0.04 | 0.06 | 0.04 | 84 | 1014.4 |
| 20260509105525 | 50 | 103 | 2.6 | 3.5 | 0.04 | 0.06 | 0.04 | 84 | 1014.4 |
| 20260509105029 | 50 | 99 | 1.7 | 3.5 | 0.04 | 0.06 | 0.04 | 85 | 1014.5 |
| 20260509104548 | 50 | 0 | 0.0 | 3.5 | 0.04 | 0.06 | 0.04 | 83 | 1014.8 |
| 20260509104025 | 51 | 0 | 0.0 | 3.5 | 0.04 | 0.06 | 0.04 | 82 | 1014.8 |
| 20260509103526 | 51 | 88 | 1.7 | 3.5 | 0.03 | 0.05 | 0.03 | 81 | 1014.6 |
| 20260509103037 | 52 | 46 | 0.9 | 2.6 | 0.03 | 0.05 | 0.03 | 77 | 1014.8 |
| 20260509102530 | 52 | 0 | 0.0 | 3.5 | 0.02 | 0.04 | 0.02 | 78 | 1014.8 |
| 20260509102027 | 53 | 0 | 0.9 | 6.1 | 0.02 | 0.04 | 0.02 | 76 | 1014.5 |
| 20260509101537 | 53 | 98 | 1.7 | 6.1 | 0.01 | 0.03 | 0.01 | 71 | 1014.2 |
| 20260509101026 | 54 | 338 | 1.7 | 6.1 | 0.00 | 0.02 | 0.00 | 75 | 1014.6 |
| 20260509100526 | 54 | 296 | 2.6 | 5.2 | 0.00 | 0.02 | 0.00 | 70 | 1014.4 |
| 20260509100040 | 54 | 309 | 1.7 | 5.2 | 0.00 | 0.02 | 0.00 | 68 | 1014.2 |
| 20260509095527 | 54 | 263 | 2.6 | 5.2 | 0.00 | 0.02 | 0.00 | 69 | 1013.8 |
| 20260509095026 | 54 | 277 | 1.7 | 3.5 | 0.00 | 0.02 | 0.00 | 70 | 1013.5 |
| 20260509094538 | 54 | 0 | 0.9 | 4.3 | 0.00 | 0.02 | 0.00 | 73 | 1013.3 |
| 20260509094026 | 53 | 240 | 1.7 | 4.3 | 0.00 | 0.02 | 0.00 | 75 | 1013.1 |
| 20260509093526 | 53 | 0 | 0.9 | 3.5 | 0.00 | 0.02 | 0.00 | 78 | 1012.9 |
| 20260509093039 | 52 | 268 | 0.0 | 0.9 | 0.00 | 0.02 | 0.00 | 81 | 1012.8 |
| 20260509092526 | 52 | 0 | 0.0 | 1.7 | 0.00 | 0.02 | 0.00 | 81 | 1012.7 |
| 20260509092024 | 52 | 0 | 0.0 | 1.7 | 0.00 | 0.02 | 0.00 | 81 | 1012.6 |
| 20260509091537 | 52 | 131 | 0.0 | 1.7 | 0.00 | 0.02 | 0.00 | 81 | 1012.6 |
| 20260509091026 | 52 | 131 | 0.0 | 0.0 | 0.00 | 0.02 | 0.00 | 81 | 1012.7 |
| 20260509090526 | 52 | 0 | 0.0 | 0.9 | 0.00 | 0.02 | 0.00 | 82 | 1012.8 |
| 20260509090049 | 52 | 0 | 0.0 | 1.7 | 0.00 | 0.02 | 0.00 | 81 | 1012.7 |
| 20260509085526 | 53 | 131 | 0.0 | 2.6 | 0.00 | 0.02 | 0.00 | 80 | 1012.8 |
| 20260509085028 | 53 | 131 | 0.9 | 2.6 | 0.00 | 0.02 | 0.00 | 80 | 1012.7 |
| 20260509084541 | 53 | 246 | 0.9 | 1.7 | 0.00 | 0.02 | 0.00 | 80 | 1012.6 |
| 20260509084026 | 53 | 0 | 0.0 | 0.9 | 0.00 | 0.02 | 0.00 | 79 | 1012.7 |
| 20260509083526 | 53 | 0 | 0.0 | 2.6 | 0.00 | 0.02 | 0.00 | 79 | 1012.5 |
| 20260509083044 | 53 | 0 | 0.0 | 2.6 | 0.00 | 0.02 | 0.00 | 79 | 1012.4 |
| 20260509082525 | 53 | 0 | 0.9 | 4.3 | 0.00 | 0.02 | 0.00 | 78 | 1012.4 |
| 20260509082026 | 53 | 259 | 1.7 | 4.3 | 0.00 | 0.02 | 0.00 | 78 | 1012.5 |
| 20260509081543 | 53 | 225 | 1.7 | 4.3 | 0.00 | 0.02 | 0.00 | 78 | 1012.4 |
| 20260509081028 | 53 | 188 | 0.9 | 1.7 | 0.00 | 0.02 | 0.00 | 78 | 1012.5 |
| 20260509080526 | 53 | 184 | 0.0 | 2.6 | 0.00 | 0.02 | 0.00 | 78 | 1012.5 |
| 20260509080037 | 53 | 0 | 0.0 | 2.6 | 0.00 | 0.02 | 0.00 | 78 | 1012.3 |
| 20260509075526 | 53 | 185 | 1.7 | 3.5 | 0.00 | 0.02 | 0.00 | 76 | 1012.3 |
| 20260509075026 | 54 | 184 | 1.7 | 3.5 | 0.00 | 0.02 | 0.00 | 75 | 1012.3 |
| 20260509074536 | 54 | 160 | 0.9 | 2.6 | 0.00 | 0.02 | 0.00 | 75 | 1012.2 |
| 20260509074030 | 54 | 0 | 0.0 | 1.7 | 0.00 | 0.02 | 0.00 | 75 | 1012.4 |
| 20260509073526 | 54 | 278 | 0.0 | 1.7 | 0.00 | 0.02 | 0.00 | 76 | 1012.4 |
| 20260509073039 | 54 | 0 | 0.0 | 2.6 | 0.00 | 0.02 | 0.00 | 76 | 1012.3 |
| 20260509072537 | 54 | 0 | 0.0 | 2.6 | 0.00 | 0.02 | 0.00 | 75 | 1012.4 |
| 20260509072025 | 55 | 278 | 0.0 | 2.6 | 0.00 | 0.02 | 0.00 | 74 | 1011.7 |
| 20260509071540 | 55 | 0 | 0.0 | 2.6 | 0.00 | 0.02 | 0.00 | 72 | 1011.5 |
| 20260509071026 | 55 | 0 | 0.9 | 2.6 | 0.00 | 0.02 | 0.00 | 72 | 1011.5 |
| 20260509070527 | 56 | 0 | 0.0 | 1.7 | 0.00 | 0.02 | 0.00 | 71 | 1011.5 |
| 20260509070037 | 56 | 305 | 0.9 | 1.7 | 0.00 | 0.02 | 0.00 | 71 | 1011.6 |
| 20260509065526 | 56 | 306 | 0.0 | 0.9 | 0.00 | 0.03 | 0.00 | 70 | 1011.8 |
| 20260509065028 | 56 | 306 | 0.0 | 2.6 | 0.00 | 0.03 | 0.00 | 70 | 1011.8 |
| 20260509064537 | 57 | 0 | 0.0 | 2.6 | 0.00 | 0.03 | 0.00 | 69 | 1011.8 |
| 20260509064027 | 57 | 305 | 0.9 | 2.6 | 0.00 | 0.03 | 0.00 | 68 | 1011.8 |
| 20260509063526 | 57 | 58 | 0.9 | 2.6 | 0.00 | 0.03 | 0.00 | 67 | 1011.6 |
| 20260509063036 | 57 | 168 | 0.0 | 1.7 | 0.00 | 0.03 | 0.00 | 67 | 1011.5 |
| 20260509062529 | 57 | 0 | 0.0 | 1.7 | 0.00 | 0.03 | 0.00 | 67 | 1011.3 |
| 20260509062027 | 57 | 0 | 0.0 | 1.7 | 0.00 | 0.03 | 0.00 | 67 | 1011.4 |
| 20260509061542 | 57 | 0 | 0.0 | 2.6 | 0.00 | 0.03 | 0.00 | 66 | 1011.4 |
| 20260509061026 | 58 | 0 | 0.0 | 3.5 | 0.00 | 0.03 | 0.00 | 65 | 1011.4 |
| 20260509060529 | 58 | 67 | 0.0 | 3.5 | 0.00 | 0.03 | 0.00 | 65 | 1011.3 |
| 20260509060038 | 58 | 62 | 1.7 | 3.5 | 0.00 | 0.03 | 0.00 | 64 | 1011.4 |
| 20260509055527 | 59 | 269 | 0.9 | 3.5 | 0.00 | 0.03 | 0.03 | 62 | 1011.4 |
| 20260509055025 | 59 | 263 | 0.0 | 5.2 | 0.00 | 0.03 | 0.03 | 61 | 1011.3 |
| 20260509054548 | 60 | 245 | 1.7 | 5.2 | 0.00 | 0.03 | 0.03 | 59 | 1011.4 |
| 20260509054027 | 61 | 276 | 2.6 | 5.2 | 0.00 | 0.03 | 0.03 | 57 | 1011.3 |
| 20260509053530 | 62 | 226 | 1.7 | 4.3 | 0.00 | 0.03 | 0.03 | 50 | 1011.3 |
| 20260509053129 | 62 | 326 | 0.9 | 4.3 | 0.00 | 0.03 | 0.03 | 50 | 1011.4 |
| 20260509052526 | 63 | 348 | 1.7 | 8.7 | 0.00 | 0.03 | 0.03 | 45 | 1011.3 |
| 20260509052026 | 62 | 317 | 2.6 | 10.4 | 0.00 | 0.03 | 0.03 | 46 | 1011.3 |
| 20260509051545 | 61 | 27 | 5.2 | 10.4 | 0.00 | 0.03 | 0.03 | 48 | 1011.4 |
| 20260509051024 | 58 | 325 | 0.9 | 4.3 | 0.00 | 0.03 | 0.03 | 65 | 1011.5 |
| 20260509050526 | 58 | 277 | 1.7 | 4.3 | 0.00 | 0.03 | 0.03 | 64 | 1011.4 |
| 20260509050047 | 59 | 205 | 1.7 | 7.0 | 0.00 | 0.03 | 0.03 | 64 | 1011.2 |
| 20260509045526 | 59 | 236 | 2.6 | 7.0 | 0.00 | 0.03 | 0.03 | 62 | 1011.1 |
| 20260509045026 | 59 | 165 | 3.5 | 7.0 | 0.00 | 0.03 | 0.03 | 63 | 1011.0 |
| 20260509044539 | 59 | 163 | 3.5 | 7.0 | 0.00 | 0.03 | 0.03 | 62 | 1011.0 |
| 20260509044028 | 59 | 182 | 2.6 | 7.0 | 0.00 | 0.03 | 0.03 | 61 | 1011.1 |
| 20260509043526 | 59 | 175 | 1.7 | 5.2 | 0.00 | 0.03 | 0.03 | 62 | 1011.0 |
| 20260509043037 | 59 | 174 | 2.6 | 5.2 | 0.00 | 0.03 | 0.03 | 60 | 1011.0 |
| 20260509042529 | 60 | 203 | 1.7 | 6.1 | 0.00 | 0.03 | 0.03 | 59 | 1011.1 |
| 20260509042027 | 60 | 277 | 0.9 | 7.8 | 0.00 | 0.03 | 0.03 | 58 | 1011.1 |
| 20260509041536 | 60 | 159 | 3.5 | 7.8 | 0.00 | 0.03 | 0.03 | 57 | 1011.1 |
| 20260509041027 | 61 | 214 | 2.6 | 6.1 | 0.00 | 0.03 | 0.03 | 57 | 1011.1 |
| 20260509040526 | 61 | 0 | 0.0 | 6.1 | 0.00 | 0.03 | 0.03 | 55 | 1011.1 |
| 20260509040037 | 61 | 268 | 0.9 | 6.1 | 0.00 | 0.03 | 0.03 | 55 | 1011.1 |
| 20260509035527 | 61 | 257 | 3.5 | 6.1 | 0.00 | 0.04 | 0.03 | 55 | 1011.0 |
| 20260509035029 | 60 | 221 | 1.7 | 4.3 | 0.00 | 0.04 | 0.03 | 58 | 1010.9 |
| 20260509034536 | 60 | 0 | 0.9 | 6.1 | 0.00 | 0.04 | 0.03 | 59 | 1010.9 |
| 20260509034027 | 60 | 190 | 1.7 | 6.1 | 0.00 | 0.04 | 0.03 | 60 | 1011.0 |
| 20260509033526 | 60 | 263 | 2.6 | 6.1 | 0.00 | 0.04 | 0.03 | 60 | 1011.1 |
| 20260509033039 | 60 | 219 | 2.6 | 6.1 | 0.00 | 0.04 | 0.03 | 62 | 1011.2 |
| 20260509032527 | 60 | 217 | 2.6 | 6.1 | 0.00 | 0.04 | 0.03 | 60 | 1011.2 |
| 20260509032027 | 60 | 226 | 1.7 | 6.1 | 0.00 | 0.04 | 0.03 | 59 | 1011.1 |
| 20260509031538 | 60 | 218 | 2.6 | 6.1 | 0.00 | 0.04 | 0.03 | 60 | 1010.7 |
| 20260509031026 | 60 | 185 | 1.7 | 3.5 | 0.00 | 0.04 | 0.03 | 59 | 1010.6 |
| 20260509030525 | 60 | 194 | 1.7 | 5.2 | 0.00 | 0.04 | 0.03 | 59 | 1010.4 |
| 20260509030039 | 60 | 190 | 2.6 | 5.2 | 0.01 | 0.04 | 0.03 | 57 | 1010.3 |
| 20260509025526 | 60 | 200 | 1.7 | 3.5 | 0.01 | 0.04 | 0.03 | 57 | 1010.1 |
| 20260509025026 | 60 | 212 | 0.0 | 3.5 | 0.01 | 0.04 | 0.03 | 61 | 1010.1 |
| 20260509024542 | 60 | 0 | 0.0 | 7.0 | 0.01 | 0.04 | 0.03 | 58 | 1010.0 |
| 20260509024025 | 60 | 202 | 1.7 | 7.0 | 0.01 | 0.04 | 0.03 | 60 | 1010.0 |
| 20260509023526 | 60 | 176 | 3.5 | 12.2 | 0.01 | 0.04 | 0.03 | 59 | 1009.9 |
| 20260509023047 | 61 | 195 | 3.5 | 15.6 | 0.01 | 0.04 | 0.03 | 59 | 1010.0 |
| 20260509022530 | 61 | 198 | 7.0 | 15.6 | 0.01 | 0.04 | 0.03 | 58 | 1010.1 |
| 20260509022030 | 62 | 214 | 5.2 | 12.2 | 0.01 | 0.04 | 0.03 | 55 | 1010.1 |
| 20260509021539 | 64 | 239 | 0.9 | 4.3 | 0.01 | 0.04 | 0.03 | 62 | 1010.3 |
| 20260509021026 | 65 | 286 | 1.7 | 4.3 | 0.01 | 0.04 | 0.03 | 53 | 1010.1 |
| 20260509020526 | 66 | 275 | 0.0 | 1.7 | 0.00 | 0.03 | 0.02 | 50 | 1010.0 |
| 20260509020044 | 66 | 0 | 0.0 | 0.0 | 0.00 | 0.03 | 0.02 | 45 | 1009.8 |
| 20260509015530 | 66 | 0 | 0.0 | 0.0 | 0.00 | 0.04 | 0.02 | 45 | 1009.8 |
| 20260509015027 | 67 | 0 | 0.0 | 0.0 | 0.00 | 0.04 | 0.02 | 45 | 1009.7 |
| 20260509014539 | 67 | 0 | 0.0 | 0.0 | 0.00 | 0.04 | 0.02 | 44 | 1009.7 |
| 20260509014024 | 67 | 0 | 0.0 | 1.7 | 0.00 | 0.04 | 0.02 | 43 | 1009.6 |
| 20260509013528 | 67 | 0 | 0.0 | 1.7 | 0.00 | 0.04 | 0.02 | 43 | 1009.7 |
| 20260509013040 | 68 | 50 | 0.9 | 2.6 | 0.00 | 0.04 | 0.02 | 42 | 1009.7 |
| 20260509012524 | 68 | 30 | 0.0 | 2.6 | 0.00 | 0.04 | 0.02 | 41 | 1009.6 |
| 20260509012026 | 68 | 47 | 0.9 | 2.6 | 0.00 | 0.04 | 0.02 | 42 | 1009.7 |
| 20260509011540 | 68 | 44 | 0.9 | 2.6 | 0.00 | 0.04 | 0.02 | 42 | 1009.7 |
| 20260509011027 | 68 | 0 | 0.9 | 3.5 | 0.00 | 0.04 | 0.02 | 41 | 1009.6 |
| 20260509010525 | 68 | 0 | 0.9 | 3.5 | 0.00 | 0.04 | 0.02 | 39 | 1009.7 |
| 20260509010038 | 68 | 34 | 1.7 | 4.3 | 0.00 | 0.04 | 0.02 | 37 | 1009.5 |
| 20260509005526 | 69 | 20 | 1.7 | 4.3 | 0.00 | 0.09 | 0.02 | 38 | 1009.6 |
| 20260509005024 | 69 | 37 | 1.7 | 6.1 | 0.00 | 0.09 | 0.02 | 37 | 1009.6 |
| 20260509004541 | 69 | 46 | 2.6 | 6.1 | 0.00 | 0.09 | 0.02 | 38 | 1009.5 |
| 20260509004025 | 69 | 51 | 1.7 | 4.3 | 0.00 | 0.09 | 0.02 | 38 | 1009.6 |
| 20260509003525 | 69 | 27 | 1.7 | 3.5 | 0.00 | 0.09 | 0.02 | 36 | 1009.6 |
| 20260509003055 | 69 | 52 | 0.0 | 3.5 | 0.00 | 0.09 | 0.02 | 36 | 1009.7 |
| 20260509002525 | 69 | 0 | 0.0 | 4.3 | 0.00 | 0.09 | 0.02 | 35 | 1009.7 |
| 20260509002024 | 70 | 63 | 1.7 | 5.2 | 0.00 | 0.09 | 0.02 | 35 | 1009.7 |
| 20260509001542 | 70 | 43 | 2.6 | 7.8 | 0.00 | 0.09 | 0.02 | 34 | 1009.7 |
| 20260509001025 | 71 | 60 | 2.6 | 7.8 | 0.00 | 0.09 | 0.02 | 35 | 1009.7 |
| 20260509000528 | 71 | 86 | 4.3 | 7.8 | 0.00 | 0.09 | 0.02 | 35 | 1009.6 |
| 20260509000044 | 70 | 0 | 0.9 | 6.1 | 0.00 | 0.09 | 0.02 | 35 | 1009.7 |
| 20260508235525 | 71 | 39 | 1.7 | 6.1 | 0.00 | 0.09 | 0.02 | 37 | 1009.7 |
| 20260508235025 | 70 | 340 | 1.7 | 7.8 | 0.00 | 0.09 | 0.02 | 37 | 1009.7 |
| 20260508234541 | 70 | 23 | 4.3 | 8.7 | 0.00 | 0.09 | 0.02 | 36 | 1009.8 |
| 20260508234025 | 71 | 57 | 3.5 | 8.7 | 0.00 | 0.09 | 0.02 | 35 | 1009.8 |
| 20260508233525 | 71 | 82 | 5.2 | 8.7 | 0.00 | 0.09 | 0.02 | 34 | 1009.7 |
| 20260508233037 | 72 | 26 | 2.6 | 6.1 | 0.00 | 0.09 | 0.02 | 35 | 1009.8 |
| 20260508232524 | 72 | 31 | 1.7 | 6.1 | 0.00 | 0.09 | 0.02 | 33 | 1010.0 |
| 20260508232027 | 72 | 198 | 0.9 | 7.0 | 0.00 | 0.09 | 0.02 | 37 | 1010.0 |
| 20260508231548 | 72 | 210 | 1.7 | 7.0 | 0.00 | 0.09 | 0.02 | 35 | 1010.0 |
| 20260508231024 | 72 | 219 | 1.7 | 3.5 | 0.00 | 0.09 | 0.02 | 35 | 1010.0 |
| 20260508230523 | 72 | 217 | 0.9 | 4.3 | 0.00 | 0.09 | 0.02 | 35 | 1010.2 |
| 20260508230042 | 72 | 117 | 0.9 | 4.3 | 0.00 | 0.09 | 0.02 | 36 | 1010.3 |
| 20260508225528 | 72 | 204 | 0.9 | 4.3 | 0.00 | 0.09 | 0.02 | 34 | 1010.4 |
| 20260508225027 | 71 | 323 | 0.9 | 4.3 | 0.00 | 0.09 | 0.02 | 37 | 1010.4 |
| 20260508224544 | 71 | 26 | 0.0 | 5.2 | 0.00 | 0.09 | 0.02 | 35 | 1010.6 |
| 20260508224023 | 71 | 154 | 1.7 | 6.1 | 0.00 | 0.09 | 0.02 | 36 | 1010.6 |
| 20260508223526 | 70 | 190 | 1.7 | 7.8 | 0.00 | 0.09 | 0.02 | 37 | 1010.8 |
| 20260508223038 | 70 | 180 | 2.6 | 10.4 | 0.00 | 0.09 | 0.02 | 38 | 1010.8 |
| 20260508222523 | 70 | 137 | 3.5 | 10.4 | 0.00 | 0.09 | 0.02 | 36 | 1010.9 |
| 20260508222023 | 70 | 208 | 1.7 | 10.4 | 0.00 | 0.09 | 0.02 | 37 | 1011.0 |
| 20260508221537 | 70 | 330 | 3.5 | 6.1 | 0.00 | 0.09 | 0.02 | 38 | 1011.0 |
| 20260508221025 | 70 | 1 | 1.7 | 6.1 | 0.00 | 0.09 | 0.02 | 36 | 1011.1 |
| 20260508220526 | 70 | 108 | 1.7 | 6.1 | 0.00 | 0.09 | 0.02 | 38 | 1011.2 |
| 20260508220037 | 70 | 37 | 0.9 | 3.5 | 0.00 | 0.09 | 0.02 | 40 | 1011.2 |
| 20260508215525 | 69 | 212 | 0.9 | 6.1 | 0.00 | 0.09 | 0.02 | 37 | 1011.3 |
| 20260508215027 | 69 | 162 | 1.7 | 6.1 | 0.00 | 0.09 | 0.02 | 37 | 1011.4 |
| 20260508214542 | 69 | 103 | 0.9 | 7.8 | 0.00 | 0.09 | 0.02 | 38 | 1011.5 |
| 20260508214023 | 69 | 151 | 2.6 | 8.7 | 0.00 | 0.09 | 0.02 | 37 | 1011.5 |
| 20260508213523 | 69 | 131 | 4.3 | 8.7 | 0.00 | 0.09 | 0.02 | 39 | 1011.6 |
| 20260508213042 | 69 | 125 | 3.5 | 7.8 | 0.00 | 0.09 | 0.02 | 39 | 1011.6 |
| 20260508212526 | 70 | 115 | 2.6 | 7.8 | 0.00 | 0.09 | 0.02 | 37 | 1011.6 |
| 20260508212023 | 69 | 247 | 1.7 | 8.7 | 0.00 | 0.09 | 0.02 | 40 | 1011.8 |
| 20260508211543 | 69 | 219 | 3.5 | 8.7 | 0.00 | 0.09 | 0.02 | 39 | 1011.8 |
| 20260508211023 | 69 | 179 | 4.3 | 7.8 | 0.00 | 0.09 | 0.02 | 38 | 1011.9 |
| 20260508210524 | 69 | 109 | 0.9 | 5.2 | 0.00 | 0.09 | 0.02 | 40 | 1011.9 |
| 20260508210047 | 68 | 158 | 2.6 | 5.2 | 0.00 | 0.09 | 0.02 | 44 | 1012.0 |
| 20260508205523 | 68 | 0 | 1.7 | 7.8 | 0.00 | 0.09 | 0.02 | 38 | 1011.9 |
| 20260508205025 | 68 | 85 | 2.6 | 7.8 | 0.00 | 0.09 | 0.02 | 39 | 1012.1 |
| 20260508204545 | 68 | 160 | 4.3 | 7.8 | 0.00 | 0.09 | 0.02 | 40 | 1012.2 |
| 20260508204023 | 67 | 152 | 4.3 | 7.0 | 0.00 | 0.09 | 0.02 | 43 | 1012.2 |
| 20260508203524 | 67 | 66 | 1.7 | 8.7 | 0.00 | 0.09 | 0.02 | 41 | 1012.2 |
| 20260508203049 | 67 | 94 | 3.5 | 8.7 | 0.00 | 0.09 | 0.02 | 43 | 1012.3 |
| 20260508202524 | 67 | 97 | 3.5 | 7.8 | 0.00 | 0.09 | 0.02 | 43 | 1012.4 |
| 20260508202026 | 66 | 34 | 3.5 | 7.0 | 0.00 | 0.09 | 0.02 | 42 | 1012.4 |
| 20260508201537 | 66 | 71 | 2.6 | 8.7 | 0.00 | 0.09 | 0.02 | 42 | 1012.4 |
| 20260508201026 | 66 | 17 | 5.2 | 8.7 | 0.00 | 0.09 | 0.02 | 41 | 1012.4 |
| 20260508200525 | 66 | 0 | 2.6 | 6.1 | 0.00 | 0.09 | 0.02 | 41 | 1012.5 |
| 20260508200041 | 66 | 92 | 2.6 | 6.1 | 0.00 | 0.09 | 0.02 | 41 | 1012.5 |
| 20260508195526 | 66 | 102 | 1.7 | 9.6 | 0.00 | 0.09 | 0.02 | 40 | 1012.7 |
| 20260508195025 | 66 | 120 | 3.5 | 9.6 | 0.00 | 0.09 | 0.02 | 43 | 1012.8 |
| 20260508194537 | 66 | 112 | 3.5 | 9.6 | 0.00 | 0.09 | 0.02 | 47 | 1012.9 |
| 20260508194024 | 66 | 108 | 4.3 | 9.6 | 0.00 | 0.09 | 0.02 | 44 | 1013.0 |
| 20260508193522 | 66 | 25 | 1.7 | 7.0 | 0.00 | 0.09 | 0.02 | 45 | 1013.0 |
| 20260508193042 | 66 | 126 | 3.5 | 7.0 | 0.00 | 0.09 | 0.02 | 48 | 1013.1 |
| 20260508192525 | 65 | 0 | 1.7 | 7.8 | 0.00 | 0.09 | 0.02 | 44 | 1013.1 |
| 20260508192025 | 65 | 222 | 3.5 | 9.6 | 0.00 | 0.09 | 0.02 | 45 | 1013.3 |
| 20260508191539 | 65 | 188 | 0.9 | 9.6 | 0.00 | 0.09 | 0.02 | 47 | 1013.4 |
| 20260508191025 | 65 | 80 | 3.5 | 9.6 | 0.00 | 0.09 | 0.02 | 46 | 1013.5 |
| 20260508190524 | 65 | 98 | 2.6 | 7.8 | 0.00 | 0.09 | 0.02 | 47 | 1013.6 |
| 20260508190047 | 64 | 99 | 1.7 | 7.8 | 0.00 | 0.09 | 0.02 | 49 | 1013.7 |
| 20260508185529 | 64 | 116 | 1.7 | 7.0 | 0.00 | 0.09 | 0.02 | 48 | 1013.9 |
| 20260508185023 | 64 | 233 | 2.6 | 8.7 | 0.00 | 0.09 | 0.02 | 48 | 1013.9 |
| 20260508184548 | 64 | 113 | 4.3 | 8.7 | 0.00 | 0.09 | 0.02 | 51 | 1014.0 |
| 20260508184025 | 64 | 159 | 5.2 | 8.7 | 0.00 | 0.09 | 0.02 | 52 | 1014.1 |
| 20260508183524 | 63 | 68 | 4.3 | 8.7 | 0.00 | 0.09 | 0.02 | 52 | 1014.1 |
| 20260508183041 | 63 | 90 | 4.3 | 7.8 | 0.00 | 0.09 | 0.02 | 51 | 1014.3 |
| 20260508182525 | 62 | 68 | 2.6 | 11.3 | 0.00 | 0.09 | 0.02 | 51 | 1014.2 |
| 20260508182024 | 62 | 79 | 5.2 | 11.3 | 0.00 | 0.09 | 0.02 | 53 | 1014.4 |
| 20260508181538 | 63 | 94 | 4.3 | 7.0 | 0.00 | 0.09 | 0.02 | 54 | 1014.6 |
| 20260508181026 | 62 | 65 | 2.6 | 10.4 | 0.00 | 0.09 | 0.02 | 56 | 1014.6 |
| 20260508180525 | 62 | 160 | 3.5 | 10.4 | 0.00 | 0.09 | 0.02 | 58 | 1014.7 |
| 20260508180037 | 62 | 99 | 3.5 | 7.8 | 0.00 | 0.09 | 0.02 | 59 | 1014.8 |
| 20260508175525 | 62 | 60 | 3.5 | 7.8 | 0.00 | 0.09 | 0.02 | 59 | 1014.9 |
| 20260508175025 | 61 | 127 | 2.6 | 7.8 | 0.00 | 0.09 | 0.02 | 58 | 1014.9 |
| 20260508174556 | 61 | 106 | 4.3 | 7.8 | 0.00 | 0.09 | 0.02 | 60 | 1014.9 |
| 20260508174031 | 61 | 79 | 3.5 | 12.2 | 0.00 | 0.09 | 0.02 | 60 | 1015.0 |
| 20260508173525 | 60 | 139 | 4.3 | 12.2 | 0.00 | 0.09 | 0.02 | 60 | 1015.0 |
| 20260508173040 | 60 | 124 | 3.5 | 8.7 | 0.00 | 0.09 | 0.02 | 64 | 1015.0 |
| 20260508172525 | 60 | 179 | 2.6 | 8.7 | 0.00 | 0.09 | 0.02 | 60 | 1015.2 |
| 20260508172025 | 60 | 216 | 4.3 | 10.4 | 0.00 | 0.09 | 0.02 | 63 | 1015.4 |
| 20260508171536 | 60 | 133 | 3.5 | 10.4 | 0.00 | 0.09 | 0.02 | 64 | 1015.3 |
| 20260508171025 | 59 | 107 | 2.6 | 10.4 | 0.00 | 0.09 | 0.02 | 64 | 1015.3 |
| 20260508170524 | 59 | 151 | 4.3 | 10.4 | 0.00 | 0.09 | 0.02 | 65 | 1015.5 |
| 20260508170038 | 59 | 107 | 3.5 | 8.7 | 0.00 | 0.09 | 0.02 | 66 | 1015.5 |
| 20260508165524 | 59 | 104 | 3.5 | 8.7 | 0.00 | 0.09 | 0.02 | 65 | 1015.6 |
| 20260508165024 | 59 | 126 | 3.5 | 8.7 | 0.00 | 0.09 | 0.02 | 68 | 1015.4 |
| 20260508164544 | 58 | 94 | 4.3 | 9.6 | 0.00 | 0.09 | 0.02 | 68 | 1015.7 |
| 20260508164026 | 58 | 179 | 4.3 | 9.6 | 0.00 | 0.09 | 0.02 | 68 | 1015.7 |
| 20260508163527 | 57 | 167 | 4.3 | 9.6 | 0.00 | 0.09 | 0.02 | 71 | 1015.6 |
| 20260508163104 | 57 | 131 | 4.3 | 9.6 | 0.00 | 0.09 | 0.02 | 70 | 1015.7 |
| 20260508162526 | 57 | 107 | 4.3 | 8.7 | 0.00 | 0.09 | 0.02 | 72 | 1015.7 |
| 20260508162024 | 57 | 158 | 4.3 | 8.7 | 0.00 | 0.09 | 0.02 | 71 | 1015.8 |
| 20260508161540 | 56 | 141 | 3.5 | 8.7 | 0.00 | 0.09 | 0.02 | 74 | 1015.8 |
| 20260508161025 | 56 | 131 | 4.3 | 8.7 | 0.00 | 0.09 | 0.02 | 74 | 1016.0 |
| 20260508160528 | 56 | 81 | 4.3 | 8.7 | 0.00 | 0.09 | 0.02 | 75 | 1016.0 |
| 20260508160037 | 56 | 78 | 4.3 | 7.8 | 0.00 | 0.09 | 0.02 | 76 | 1016.0 |
| 20260508155525 | 56 | 146 | 3.5 | 8.7 | 0.00 | 0.09 | 0.02 | 79 | 1016.1 |
| 20260508155025 | 55 | 160 | 3.5 | 8.7 | 0.00 | 0.09 | 0.02 | 80 | 1016.2 |
| 20260508154537 | 55 | 158 | 4.3 | 8.7 | 0.00 | 0.09 | 0.02 | 79 | 1016.2 |
| 20260508154025 | 54 | 167 | 4.3 | 10.4 | 0.00 | 0.09 | 0.02 | 79 | 1016.3 |
| 20260508153525 | 54 | 150 | 5.2 | 10.4 | 0.00 | 0.09 | 0.02 | 80 | 1016.3 |
| 20260508153037 | 53 | 125 | 3.5 | 8.7 | 0.00 | 0.09 | 0.02 | 82 | 1016.4 |
| 20260508152524 | 52 | 127 | 4.3 | 8.7 | 0.00 | 0.09 | 0.02 | 83 | 1016.4 |
| 20260508152025 | 51 | 131 | 2.6 | 8.7 | 0.00 | 0.09 | 0.02 | 86 | 1016.4 |
| 20260508151541 | 51 | 117 | 3.5 | 8.7 | 0.00 | 0.09 | 0.02 | 86 | 1016.4 |
| 20260508151033 | 51 | 148 | 4.3 | 8.7 | 0.00 | 0.09 | 0.02 | 86 | 1016.4 |
| 20260508150525 | 50 | 148 | 3.5 | 7.8 | 0.00 | 0.09 | 0.02 | 88 | 1016.5 |
| 20260508150040 | 50 | 113 | 3.5 | 7.0 | 0.00 | 0.09 | 0.02 | 89 | 1016.5 |
| 20260508145524 | 49 | 244 | 0.9 | 3.5 | 0.00 | 0.09 | 0.02 | 90 | 1016.6 |
| 20260508145025 | 49 | 21 | 0.9 | 4.3 | 0.00 | 0.09 | 0.02 | 90 | 1016.7 |
| 20260508144540 | 49 | 0 | 0.0 | 4.3 | 0.00 | 0.09 | 0.02 | 91 | 1016.7 |
| 20260508144025 | 48 | 103 | 1.7 | 4.3 | 0.00 | 0.09 | 0.02 | 91 | 1016.6 |
| 20260508143526 | 48 | 105 | 1.7 | 4.3 | 0.00 | 0.09 | 0.02 | 91 | 1016.7 |
| 20260508143037 | 48 | 78 | 1.7 | 4.3 | 0.00 | 0.09 | 0.02 | 91 | 1016.8 |
| 20260508142524 | 48 | 66 | 1.7 | 4.3 | 0.00 | 0.09 | 0.02 | 92 | 1016.7 |
| 20260508142025 | 47 | 106 | 1.7 | 4.3 | 0.00 | 0.09 | 0.02 | 92 | 1016.7 |
| 20260508141537 | 47 | 45 | 1.7 | 4.3 | 0.00 | 0.09 | 0.02 | 93 | 1016.8 |
| 20260508141022 | 47 | 0 | 0.9 | 4.3 | 0.00 | 0.09 | 0.02 | 93 | 1016.9 |
| 20260508140525 | 46 | 14 | 0.9 | 4.3 | 0.00 | 0.09 | 0.02 | 94 | 1016.7 |
| 20260508140036 | 46 | 20 | 0.0 | 2.6 | 0.00 | 0.09 | 0.02 | 94 | 1016.7 |
| 20260508135525 | 46 | 20 | 0.9 | 2.6 | 0.00 | 0.11 | 0.02 | 94 | 1016.7 |
| 20260508135024 | 45 | 25 | 0.0 | 2.6 | 0.00 | 0.11 | 0.02 | 94 | 1016.6 |
| 20260508134544 | 45 | 0 | 0.0 | 1.7 | 0.00 | 0.11 | 0.02 | 94 | 1016.7 |
| 20260508134023 | 44 | 0 | 0.0 | 1.7 | 0.00 | 0.11 | 0.02 | 94 | 1016.6 |
| 20260508133527 | 44 | 0 | 0.0 | 1.7 | 0.00 | 0.11 | 0.02 | 94 | 1016.6 |
| 20260508133045 | 44 | 0 | 0.0 | 1.7 | 0.00 | 0.11 | 0.02 | 94 | 1016.6 |
| 20260508132523 | 43 | 0 | 0.0 | 1.7 | 0.00 | 0.11 | 0.02 | 94 | 1016.7 |
| 20260508132023 | 43 | 0 | 0.0 | 2.6 | 0.00 | 0.11 | 0.02 | 94 | 1016.7 |
| 20260508131545 | 43 | 0 | 0.0 | 2.6 | 0.01 | 0.11 | 0.02 | 94 | 1016.6 |
| 20260508131026 | 43 | 55 | 0.9 | 2.6 | 0.01 | 0.11 | 0.02 | 94 | 1016.4 |
| 20260508130527 | 43 | 0 | 0.0 | 0.9 | 0.01 | 0.11 | 0.02 | 94 | 1016.4 |
| 20260508130047 | 42 | 0 | 0.0 | 0.9 | 0.01 | 0.11 | 0.02 | 94 | 1016.3 |
| 20260508125523 | 41 | 0 | 0.0 | 1.7 | 0.01 | 0.11 | 0.02 | 94 | 1016.4 |
| 20260508125023 | 41 | 0 | 0.0 | 2.6 | 0.01 | 0.11 | 0.02 | 94 | 1016.4 |
| 20260508124536 | 41 | 27 | 0.9 | 2.6 | 0.01 | 0.11 | 0.02 | 94 | 1016.2 |
| 20260508124024 | 40 | 184 | 0.0 | 1.7 | 0.01 | 0.11 | 0.02 | 94 | 1016.1 |
| 20260508123523 | 39 | 0 | 0.0 | 0.0 | 0.01 | 0.11 | 0.02 | 94 | 1016.1 |
| 20260508123041 | 39 | 0 | 0.0 | 0.0 | 0.01 | 0.11 | 0.02 | 94 | 1015.9 |
| 20260508122526 | 39 | 0 | 0.0 | 0.0 | 0.01 | 0.11 | 0.02 | 93 | 1016.0 |
| 20260508122029 | 39 | 0 | 0.0 | 0.0 | 0.01 | 0.11 | 0.02 | 93 | 1015.8 |
| 20260508121539 | 39 | 0 | 0.0 | 0.0 | 0.00 | 0.10 | 0.01 | 94 | 1015.8 |
| 20260508121023 | 39 | 0 | 0.0 | 0.0 | 0.00 | 0.10 | 0.01 | 94 | 1015.7 |
| 20260508120525 | 39 | 0 | 0.0 | 0.0 | 0.00 | 0.10 | 0.01 | 94 | 1015.8 |
| 20260508120036 | 39 | 0 | 0.0 | 0.0 | 0.00 | 0.10 | 0.01 | 94 | 1015.8 |
| 20260508115528 | 39 | 0 | 0.0 | 0.0 | 0.00 | 0.11 | 0.01 | 93 | 1015.8 |
| 20260508115025 | 39 | 0 | 0.0 | 0.0 | 0.00 | 0.11 | 0.01 | 93 | 1015.8 |
| 20260508114537 | 39 | 0 | 0.0 | 0.0 | 0.00 | 0.11 | 0.01 | 93 | 1015.7 |
| 20260508114025 | 39 | 0 | 0.0 | 0.0 | 0.00 | 0.11 | 0.01 | 93 | 1015.7 |
| 20260508113523 | 39 | 0 | 0.0 | 0.0 | 0.00 | 0.11 | 0.01 | 93 | 1015.7 |